SWA948 PHOG-KSAN
Flight info
| Callsign | SWA948 |
|---|---|
| Flight time | N/A |
| Altitude | 35000 |
| Route | HIAKA1 ROSAH CLUTS R465 CIVIT R585 GITLE ADUMM GALIP AUDIA RYDRR LAX COMIX2 |
| Aircraft | B38M/M-SADE2E3GHIJ4J7P2RWZ/LB1D1 |
Departure
| Time | 2026-04-28 01:02 |
|---|---|
| Airport | Kahului International Airport (PHOG) |
Arrival
| Time | N/A |
|---|---|
| Airport | San Diego International Airport (KSAN) |
| Time | Latitude | Longitude | Altitude | Speed | Heading |
|---|---|---|---|---|---|
| 2026-04-27 23:56 | 20.89219 | -156.43713 | 34 ft | 0 kts | 328° |
| 2026-04-28 00:55 | 20.89198 | -156.43701 | 34 ft | 4 kts | 321° |
| 2026-04-28 00:55 | 20.89180 | -156.43680 | 34 ft | 4 kts | 313° |
| 2026-04-28 00:55 | 20.89161 | -156.43660 | 34 ft | 4 kts | 320° |
| 2026-04-28 00:56 | 20.89139 | -156.43644 | 34 ft | 4 kts | 340° |
| 2026-04-28 00:56 | 20.89136 | -156.43643 | 34 ft | 0 kts | 344° |
| 2026-04-28 00:59 | 20.89137 | -156.43643 | 34 ft | 1 kts | 344° |
| 2026-04-28 00:59 | 20.89140 | -156.43647 | 34 ft | 0 kts | 315° |
| 2026-04-28 00:59 | 20.89141 | -156.43650 | 34 ft | 1 kts | 290° |
| 2026-04-28 00:59 | 20.89138 | -156.43656 | 34 ft | 2 kts | 242° |
| 2026-04-28 01:00 | 20.89112 | -156.43669 | 34 ft | 7 kts | 198° |
| 2026-04-28 01:00 | 20.89054 | -156.43693 | 34 ft | 10 kts | 207° |
| 2026-04-28 01:00 | 20.88995 | -156.43705 | 34 ft | 1 kts | 145° |
| 2026-04-28 01:00 | 20.88987 | -156.43697 | 34 ft | 2 kts | 132° |
| 2026-04-28 01:01 | 20.88970 | -156.43676 | 34 ft | 6 kts | 131° |
| 2026-04-28 01:01 | 20.88936 | -156.43628 | 34 ft | 8 kts | 113° |
| 2026-04-28 01:01 | 20.88946 | -156.43608 | 34 ft | 0 kts | 35° |
| 2026-04-28 01:01 | 20.88948 | -156.43607 | 34 ft | 3 kts | 34° |
| 2026-04-28 01:02 | 20.89152 | -156.43456 | 34 ft | 74 kts | 34° |
| 2026-04-28 01:02 | 20.89778 | -156.42993 | 32 ft | 142 kts | 35° |
| 2026-04-28 01:02 | 20.90703 | -156.42317 | 470 ft | 164 kts | 36° |
| 2026-04-28 01:02 | 20.91664 | -156.41625 | 1262 ft | 173 kts | 34° |
| 2026-04-28 01:03 | 20.92706 | -156.40869 | 1817 ft | 190 kts | 36° |
| 2026-04-28 01:03 | 20.93849 | -156.40010 | 2300 ft | 213 kts | 36° |
| 2026-04-28 01:03 | 20.95142 | -156.39025 | 2710 ft | 245 kts | 37° |
| 2026-04-28 01:03 | 20.96490 | -156.37865 | 3488 ft | 256 kts | 40° |
| 2026-04-28 01:04 | 20.97933 | -156.36664 | 4272 ft | 271 kts | 39° |
| 2026-04-28 01:04 | 20.99442 | -156.35442 | 5336 ft | 267 kts | 39° |
| 2026-04-28 01:04 | 21.00889 | -156.34254 | 6566 ft | 262 kts | 40° |
| 2026-04-28 01:04 | 21.02360 | -156.33040 | 7313 ft | 272 kts | 39° |
| 2026-04-28 01:05 | 21.03894 | -156.31769 | 7990 ft | 284 kts | 39° |
| 2026-04-28 01:05 | 21.05479 | -156.30453 | 8791 ft | 290 kts | 40° |
| 2026-04-28 01:05 | 21.07074 | -156.29122 | 9779 ft | 290 kts | 39° |
| 2026-04-28 01:05 | 21.08675 | -156.27784 | 10578 ft | 296 kts | 38° |
| 2026-04-28 01:06 | 21.10321 | -156.26432 | 11138 ft | 307 kts | 37° |
| 2026-04-28 01:06 | 21.12047 | -156.25012 | 11692 ft | 319 kts | 37° |
| 2026-04-28 01:06 | 21.13824 | -156.23537 | 12363 ft | 325 kts | 37° |
| 2026-04-28 01:06 | 21.15640 | -156.22025 | 12894 ft | 338 kts | 37° |
| 2026-04-28 01:07 | 21.17534 | -156.20435 | 13262 ft | 353 kts | 37° |
| 2026-04-28 01:07 | 21.19493 | -156.18804 | 13846 ft | 359 kts | 35° |
| 2026-04-28 01:07 | 21.21449 | -156.17175 | 14676 ft | 354 kts | 36° |
| 2026-04-28 01:07 | 21.23366 | -156.15535 | 15460 ft | 352 kts | 36° |
| 2026-04-28 01:08 | 21.25296 | -156.13900 | 16053 ft | 356 kts | 36° |
| 2026-04-28 01:08 | 21.27261 | -156.12259 | 16617 ft | 361 kts | 36° |
| 2026-04-28 01:08 | 21.29284 | -156.10572 | 16826 ft | 376 kts | 35° |
| 2026-04-28 01:08 | 21.31377 | -156.08823 | 17178 ft | 385 kts | 36° |
| 2026-04-28 01:09 | 21.33487 | -156.07059 | 17807 ft | 386 kts | 37° |
| 2026-04-28 01:09 | 21.35621 | -156.05274 | 18281 ft | 390 kts | 36° |
| 2026-04-28 01:09 | 21.37775 | -156.03474 | 18755 ft | 393 kts | 36° |
| 2026-04-28 01:09 | 21.39941 | -156.01662 | 19201 ft | 396 kts | 37° |
| 2026-04-28 01:10 | 21.42123 | -155.99835 | 19653 ft | 399 kts | 36° |
| 2026-04-28 01:10 | 21.44323 | -155.97995 | 20097 ft | 402 kts | 36° |
| 2026-04-28 01:10 | 21.46541 | -155.96139 | 20536 ft | 406 kts | 37° |
| 2026-04-28 01:10 | 21.48774 | -155.94267 | 20973 ft | 409 kts | 37° |
| 2026-04-28 01:11 | 21.51025 | -155.92380 | 21418 ft | 412 kts | 37° |
| 2026-04-28 01:11 | 21.53262 | -155.90505 | 21829 ft | 415 kts | 37° |
| 2026-04-28 01:11 | 21.55545 | -155.88589 | 22263 ft | 418 kts | 37° |
| 2026-04-28 01:11 | 21.57845 | -155.86658 | 22706 ft | 421 kts | 37° |
| 2026-04-28 01:12 | 21.60161 | -155.84714 | 23118 ft | 424 kts | 37° |
| 2026-04-28 01:12 | 21.62493 | -155.82755 | 23519 ft | 427 kts | 37° |
| 2026-04-28 01:12 | 21.64848 | -155.80777 | 23888 ft | 430 kts | 37° |
| 2026-04-28 01:12 | 21.67216 | -155.78787 | 24245 ft | 432 kts | 37° |
| 2026-04-28 01:13 | 21.69585 | -155.76794 | 24625 ft | 433 kts | 37° |
| 2026-04-28 01:13 | 21.74330 | -155.72800 | 25362 ft | 437 kts | 38° |
| 2026-04-28 01:13 | 21.76730 | -155.70779 | 25713 ft | 440 kts | 38° |
| 2026-04-28 01:14 | 21.79146 | -155.68744 | 26083 ft | 442 kts | 38° |
| 2026-04-28 01:14 | 21.81571 | -155.66701 | 26425 ft | 443 kts | 38° |
| 2026-04-28 01:14 | 21.84006 | -155.64648 | 26748 ft | 446 kts | 38° |
| 2026-04-28 01:14 | 21.86457 | -155.62581 | 27100 ft | 448 kts | 39° |
| 2026-04-28 01:15 | 21.88916 | -155.60507 | 27409 ft | 450 kts | 39° |
| 2026-04-28 01:15 | 21.91386 | -155.58421 | 27772 ft | 451 kts | 39° |
| 2026-04-28 01:15 | 21.93861 | -155.56329 | 28089 ft | 453 kts | 39° |
| 2026-04-28 01:15 | 21.96323 | -155.54249 | 28407 ft | 455 kts | 40° |
| 2026-04-28 01:16 | 21.98819 | -155.52140 | 28743 ft | 457 kts | 39° |
| 2026-04-28 01:16 | 22.01327 | -155.50018 | 29052 ft | 459 kts | 40° |
| 2026-04-28 01:16 | 22.03841 | -155.47891 | 29355 ft | 461 kts | 39° |
| 2026-04-28 01:16 | 22.06369 | -155.45753 | 29677 ft | 463 kts | 40° |
| 2026-04-28 01:17 | 22.08911 | -155.43598 | 29976 ft | 465 kts | 40° |
| 2026-04-28 01:17 | 22.11458 | -155.41438 | 30252 ft | 466 kts | 40° |
| 2026-04-28 01:17 | 22.14018 | -155.39270 | 30495 ft | 469 kts | 40° |
| 2026-04-28 01:17 | 22.16591 | -155.37087 | 30755 ft | 470 kts | 39° |
| 2026-04-28 01:18 | 22.19164 | -155.34903 | 31011 ft | 472 kts | 40° |
| 2026-04-28 01:18 | 22.21747 | -155.32710 | 31320 ft | 472 kts | 40° |
| 2026-04-28 01:18 | 22.24329 | -155.30517 | 31652 ft | 472 kts | 39° |
| 2026-04-28 01:18 | 22.26905 | -155.28328 | 32010 ft | 471 kts | 40° |
| 2026-04-28 01:19 | 22.29472 | -155.26144 | 32382 ft | 469 kts | 40° |
| 2026-04-28 01:19 | 22.32033 | -155.23966 | 32742 ft | 468 kts | 39° |
| 2026-04-28 01:19 | 22.34558 | -155.21816 | 33092 ft | 467 kts | 40° |
| 2026-04-28 01:19 | 22.37110 | -155.19643 | 33440 ft | 466 kts | 39° |
| 2026-04-28 01:20 | 22.39659 | -155.17473 | 33805 ft | 465 kts | 39° |
| 2026-04-28 01:20 | 22.42194 | -155.15312 | 34138 ft | 464 kts | 39° |
| 2026-04-28 01:20 | 22.44724 | -155.13154 | 34424 ft | 463 kts | 39° |
| 2026-04-28 01:20 | 22.47255 | -155.10996 | 34699 ft | 462 kts | 39° |
| 2026-04-28 01:21 | 22.49775 | -155.08846 | 34953 ft | 461 kts | 39° |
| 2026-04-28 01:21 | 22.52295 | -155.06693 | 35080 ft | 462 kts | 39° |
| 2026-04-28 01:21 | 22.57295 | -155.02420 | 35076 ft | 458 kts | 39° |
| 2026-04-28 01:22 | 22.62312 | -154.98129 | 35078 ft | 459 kts | 39° |
| 2026-04-28 01:22 | 22.67320 | -154.93841 | 35076 ft | 459 kts | 39° |
| 2026-04-28 01:23 | 22.72333 | -154.89545 | 35079 ft | 459 kts | 39° |
| 2026-04-28 01:23 | 22.77349 | -154.85243 | 35082 ft | 459 kts | 39° |
| 2026-04-28 01:24 | 22.82324 | -154.80970 | 35081 ft | 459 kts | 39° |
| 2026-04-28 01:24 | 22.87332 | -154.76667 | 35082 ft | 459 kts | 39° |
| 2026-04-28 01:25 | 22.92334 | -154.72364 | 35082 ft | 460 kts | 39° |
| 2026-04-28 01:25 | 22.97356 | -154.68039 | 35084 ft | 460 kts | 39° |
| 2026-04-28 01:26 | 23.01712 | -154.63057 | 35093 ft | 455 kts | 57° |
| 2026-04-28 01:26 | 23.05281 | -154.57334 | 35072 ft | 458 kts | 57° |
| 2026-04-28 01:27 | 23.08810 | -154.51572 | 35083 ft | 458 kts | 57° |
| 2026-04-28 01:27 | 23.12303 | -154.45835 | 35085 ft | 458 kts | 57° |
| 2026-04-28 01:28 | 23.15817 | -154.40055 | 35082 ft | 458 kts | 57° |
| 2026-04-28 01:28 | 23.19326 | -154.34279 | 35080 ft | 458 kts | 57° |
| 2026-04-28 01:29 | 23.22831 | -154.28503 | 35084 ft | 457 kts | 57° |
| 2026-04-28 01:29 | 23.26335 | -154.22722 | 35087 ft | 457 kts | 57° |
| 2026-04-28 01:30 | 23.29832 | -154.16945 | 35089 ft | 458 kts | 57° |
| 2026-04-28 01:30 | 23.33333 | -154.11157 | 35090 ft | 457 kts | 57° |
| 2026-04-28 01:31 | 23.36824 | -154.05376 | 35085 ft | 458 kts | 57° |
| 2026-04-28 01:31 | 23.40324 | -153.99576 | 35084 ft | 458 kts | 57° |
| 2026-04-28 01:32 | 23.43805 | -153.93800 | 35085 ft | 458 kts | 57° |
| 2026-04-28 01:32 | 23.47302 | -153.87990 | 35092 ft | 458 kts | 57° |
| 2026-04-28 01:33 | 23.50795 | -153.82181 | 35090 ft | 458 kts | 57° |
| 2026-04-28 01:33 | 23.54260 | -153.76412 | 35091 ft | 458 kts | 57° |
| 2026-04-28 01:34 | 23.57743 | -153.70606 | 35091 ft | 457 kts | 57° |
| 2026-04-28 01:34 | 23.61229 | -153.64789 | 35093 ft | 458 kts | 57° |
| 2026-04-28 01:35 | 23.64715 | -153.58965 | 35095 ft | 458 kts | 57° |
| 2026-04-28 01:35 | 23.68201 | -153.53134 | 35094 ft | 458 kts | 57° |
| 2026-04-28 01:36 | 23.71660 | -153.47341 | 35095 ft | 458 kts | 57° |
| 2026-04-28 01:36 | 23.75140 | -153.41510 | 35097 ft | 458 kts | 57° |
| 2026-04-28 01:37 | 23.78612 | -153.35694 | 35096 ft | 457 kts | 57° |
| 2026-04-28 01:37 | 23.82095 | -153.29877 | 35101 ft | 457 kts | 57° |
| 2026-04-28 01:38 | 23.85572 | -153.24065 | 35100 ft | 457 kts | 57° |
| 2026-04-28 01:38 | 23.89054 | -153.18236 | 35103 ft | 457 kts | 57° |
| 2026-04-28 01:39 | 23.92512 | -153.12441 | 35108 ft | 457 kts | 57° |
| 2026-04-28 01:39 | 23.95418 | -153.07566 | 35100 ft | 456 kts | 57° |
| 2026-04-28 01:40 | 23.99439 | -153.00812 | 35104 ft | 456 kts | 57° |
| 2026-04-28 01:40 | 24.02904 | -152.94985 | 35103 ft | 457 kts | 57° |
| 2026-04-28 01:41 | 24.05784 | -152.90137 | 35107 ft | 457 kts | 57° |
| 2026-04-28 01:41 | 24.09245 | -152.84305 | 35108 ft | 457 kts | 57° |
| 2026-04-28 01:42 | 24.13267 | -152.77517 | 35108 ft | 456 kts | 57° |
| 2026-04-28 01:42 | 24.16157 | -152.72635 | 35109 ft | 456 kts | 57° |
| 2026-04-28 01:43 | 24.19590 | -152.66829 | 35111 ft | 456 kts | 57° |
| 2026-04-28 01:43 | 24.23038 | -152.60990 | 35116 ft | 456 kts | 57° |
| 2026-04-28 01:44 | 24.26486 | -152.55146 | 35117 ft | 457 kts | 57° |
| 2026-04-28 01:44 | 24.29930 | -152.49299 | 35118 ft | 455 kts | 57° |
| 2026-04-28 01:45 | 24.33360 | -152.43472 | 35115 ft | 455 kts | 57° |
| 2026-04-28 01:45 | 24.36769 | -152.37671 | 35114 ft | 455 kts | 57° |
| 2026-04-28 01:46 | 24.40201 | -152.31826 | 35117 ft | 455 kts | 57° |
| 2026-04-28 01:46 | 24.43626 | -152.25985 | 35113 ft | 455 kts | 58° |
| 2026-04-28 01:47 | 24.47049 | -152.20141 | 35123 ft | 455 kts | 58° |
| 2026-04-28 01:47 | 24.50463 | -152.14305 | 35116 ft | 453 kts | 57° |
| 2026-04-28 01:48 | 24.53871 | -152.08472 | 35117 ft | 454 kts | 57° |
| 2026-04-28 01:48 | 24.57258 | -152.02667 | 35117 ft | 454 kts | 57° |
| 2026-04-28 01:49 | 24.60668 | -151.96817 | 35120 ft | 454 kts | 58° |
| 2026-04-28 01:49 | 24.64075 | -151.90964 | 35126 ft | 454 kts | 57° |
| 2026-04-28 01:50 | 24.67475 | -151.85118 | 35125 ft | 454 kts | 58° |
| 2026-04-28 01:50 | 24.70869 | -151.79273 | 35124 ft | 454 kts | 58° |
| 2026-04-28 01:51 | 24.74246 | -151.73451 | 35127 ft | 454 kts | 58° |
| 2026-04-28 01:51 | 24.77642 | -151.67588 | 35131 ft | 454 kts | 57° |
| 2026-04-28 01:52 | 24.81036 | -151.61724 | 35130 ft | 454 kts | 58° |
| 2026-04-28 01:52 | 24.84427 | -151.55857 | 35129 ft | 454 kts | 58° |
| 2026-04-28 01:53 | 24.87816 | -151.49985 | 35134 ft | 455 kts | 58° |
| 2026-04-28 01:53 | 24.91211 | -151.44096 | 35130 ft | 455 kts | 58° |
| 2026-04-28 01:54 | 24.94602 | -151.38207 | 35132 ft | 455 kts | 58° |
| 2026-04-28 01:54 | 24.97992 | -151.32313 | 35134 ft | 455 kts | 58° |
| 2026-04-28 01:55 | 25.01366 | -151.26437 | 35134 ft | 453 kts | 58° |
| 2026-04-28 01:55 | 25.04736 | -151.20564 | 35128 ft | 453 kts | 58° |
| 2026-04-28 01:56 | 25.08080 | -151.14726 | 35139 ft | 454 kts | 58° |
| 2026-04-28 01:56 | 25.11454 | -151.08832 | 35138 ft | 454 kts | 58° |
| 2026-04-28 01:57 | 25.14831 | -151.02923 | 35139 ft | 454 kts | 58° |
| 2026-04-28 01:57 | 25.18194 | -150.97031 | 35134 ft | 452 kts | 58° |
| 2026-04-28 01:58 | 25.21523 | -150.91192 | 35133 ft | 452 kts | 58° |
| 2026-04-28 01:58 | 25.24877 | -150.85303 | 35136 ft | 452 kts | 58° |
| 2026-04-28 01:59 | 25.28225 | -150.79414 | 35135 ft | 452 kts | 58° |
| 2026-04-28 01:59 | 25.31573 | -150.73521 | 35144 ft | 452 kts | 57° |
| 2026-04-28 02:00 | 25.34906 | -150.67646 | 35141 ft | 451 kts | 58° |
| 2026-04-28 02:00 | 25.38215 | -150.61806 | 35138 ft | 451 kts | 58° |
| 2026-04-28 02:01 | 25.41541 | -150.55929 | 35141 ft | 450 kts | 58° |
| 2026-04-28 02:01 | 25.44862 | -150.50052 | 35138 ft | 450 kts | 58° |
| 2026-04-28 02:02 | 25.48189 | -150.44160 | 35144 ft | 451 kts | 57° |
| 2026-04-28 02:02 | 25.51512 | -150.38266 | 35137 ft | 451 kts | 57° |
| 2026-04-28 02:03 | 25.54835 | -150.32362 | 35139 ft | 451 kts | 57° |
| 2026-04-28 02:03 | 25.58137 | -150.26492 | 35142 ft | 451 kts | 58° |
| 2026-04-28 02:04 | 25.61458 | -150.20577 | 35141 ft | 451 kts | 57° |
| 2026-04-28 02:04 | 25.64773 | -150.14668 | 35145 ft | 450 kts | 57° |
| 2026-04-28 02:05 | 25.68078 | -150.08769 | 35146 ft | 451 kts | 57° |
| 2026-04-28 02:05 | 25.71382 | -150.02861 | 35148 ft | 451 kts | 57° |
| 2026-04-28 02:06 | 25.74686 | -149.96949 | 35143 ft | 451 kts | 57° |
| 2026-04-28 02:06 | 25.77986 | -149.91036 | 35141 ft | 451 kts | 57° |
| 2026-04-28 02:07 | 25.81293 | -149.85102 | 35147 ft | 451 kts | 57° |
| 2026-04-28 02:07 | 25.84565 | -149.79225 | 35145 ft | 450 kts | 57° |
| 2026-04-28 02:08 | 25.87858 | -149.73301 | 35146 ft | 450 kts | 57° |
| 2026-04-28 02:08 | 25.91141 | -149.67387 | 35143 ft | 450 kts | 57° |
| 2026-04-28 02:09 | 25.94425 | -149.61465 | 35147 ft | 450 kts | 57° |
| 2026-04-28 02:09 | 25.97708 | -149.55537 | 35149 ft | 450 kts | 57° |
| 2026-04-28 02:10 | 26.00984 | -149.49612 | 35151 ft | 450 kts | 56° |
| 2026-04-28 02:10 | 26.04260 | -149.43680 | 35151 ft | 449 kts | 57° |
| 2026-04-28 02:11 | 26.07523 | -149.37764 | 35150 ft | 449 kts | 57° |
| 2026-04-28 02:11 | 26.10775 | -149.31863 | 35159 ft | 449 kts | 57° |
| 2026-04-28 02:12 | 26.14036 | -149.25935 | 35153 ft | 449 kts | 57° |
| 2026-04-28 02:12 | 26.17306 | -149.19986 | 35154 ft | 450 kts | 56° |
| 2026-04-28 02:13 | 26.20579 | -149.14021 | 35159 ft | 450 kts | 57° |
| 2026-04-28 02:13 | 26.23828 | -149.08094 | 35154 ft | 451 kts | 56° |
| 2026-04-28 02:14 | 26.27095 | -149.02123 | 35161 ft | 450 kts | 56° |
| 2026-04-28 02:14 | 26.30355 | -148.96157 | 35158 ft | 451 kts | 57° |
| 2026-04-28 02:15 | 26.35251 | -148.87187 | 35160 ft | 451 kts | 57° |
| 2026-04-28 02:16 | 26.38508 | -148.81208 | 35164 ft | 451 kts | 57° |
| 2026-04-28 02:16 | 26.41745 | -148.75258 | 35162 ft | 452 kts | 57° |
| 2026-04-28 02:17 | 26.45007 | -148.69255 | 35164 ft | 452 kts | 57° |
| 2026-04-28 02:17 | 26.48261 | -148.63258 | 35160 ft | 451 kts | 57° |
| 2026-04-28 02:18 | 26.51515 | -148.57253 | 35161 ft | 452 kts | 56° |
| 2026-04-28 02:18 | 26.54749 | -148.51278 | 35167 ft | 452 kts | 57° |
| 2026-04-28 02:19 | 26.58002 | -148.45257 | 35168 ft | 453 kts | 57° |
| 2026-04-28 02:19 | 26.61257 | -148.39227 | 35166 ft | 453 kts | 57° |
| 2026-04-28 02:20 | 26.64513 | -148.33186 | 35167 ft | 453 kts | 56° |
| 2026-04-28 02:20 | 26.67764 | -148.27147 | 35168 ft | 453 kts | 56° |
| 2026-04-28 02:21 | 26.71011 | -148.21105 | 35171 ft | 453 kts | 57° |
| 2026-04-28 02:21 | 26.74258 | -148.15058 | 35173 ft | 453 kts | 56° |
| 2026-04-28 02:22 | 26.77506 | -148.08998 | 35170 ft | 454 kts | 57° |
| 2026-04-28 02:22 | 26.80753 | -148.02933 | 35166 ft | 454 kts | 57° |
| 2026-04-28 02:23 | 26.83974 | -147.96906 | 35173 ft | 454 kts | 57° |
| 2026-04-28 02:23 | 26.87221 | -147.90825 | 35181 ft | 454 kts | 56° |
| 2026-04-28 02:24 | 26.90460 | -147.84750 | 35181 ft | 454 kts | 56° |
| 2026-04-28 02:24 | 26.93698 | -147.78670 | 35176 ft | 454 kts | 57° |
| 2026-04-28 02:25 | 26.96945 | -147.72567 | 35176 ft | 455 kts | 56° |
| 2026-04-28 02:25 | 27.00175 | -147.66485 | 35546 ft | 456 kts | 56° |
| 2026-04-28 02:25 | 27.01803 | -147.63417 | 35802 ft | 456 kts | 56° |
| 2026-04-28 02:26 | 27.03422 | -147.60363 | 36053 ft | 455 kts | 56° |
| 2026-04-28 02:26 | 27.05037 | -147.57316 | 36298 ft | 454 kts | 56° |
| 2026-04-28 02:26 | 27.06649 | -147.54271 | 36538 ft | 454 kts | 56° |
| 2026-04-28 02:26 | 27.08259 | -147.51228 | 36769 ft | 453 kts | 56° |
| 2026-04-28 02:27 | 27.09866 | -147.48190 | 36994 ft | 453 kts | 57° |
| 2026-04-28 02:27 | 27.11453 | -147.45189 | 37171 ft | 452 kts | 56° |
| 2026-04-28 02:27 | 27.13058 | -147.42148 | 37193 ft | 452 kts | 56° |
| 2026-04-28 02:28 | 27.16249 | -147.36098 | 37192 ft | 449 kts | 56° |
| 2026-04-28 02:28 | 27.19440 | -147.30042 | 37178 ft | 449 kts | 56° |
| 2026-04-28 02:29 | 27.22621 | -147.23996 | 37185 ft | 449 kts | 56° |
| 2026-04-28 02:29 | 27.25408 | -147.17693 | 37213 ft | 451 kts | 62° |
| 2026-04-28 02:30 | 27.28106 | -147.11360 | 37185 ft | 452 kts | 61° |
| 2026-04-28 02:30 | 27.30848 | -147.04991 | 37186 ft | 452 kts | 61° |
| 2026-04-28 02:31 | 27.33590 | -146.98620 | 37193 ft | 452 kts | 61° |
| 2026-04-28 02:31 | 27.35867 | -146.93324 | 37189 ft | 452 kts | 61° |
| 2026-04-28 02:32 | 27.38605 | -146.86946 | 37190 ft | 452 kts | 61° |
| 2026-04-28 02:32 | 27.41339 | -146.80568 | 37196 ft | 452 kts | 61° |
| 2026-04-28 02:33 | 27.44068 | -146.74191 | 37193 ft | 452 kts | 61° |
| 2026-04-28 02:33 | 27.46800 | -146.67797 | 37192 ft | 452 kts | 61° |
| 2026-04-28 02:34 | 27.49510 | -146.61446 | 37195 ft | 452 kts | 61° |
| 2026-04-28 02:34 | 27.52232 | -146.55056 | 37198 ft | 452 kts | 60° |
| 2026-04-28 02:35 | 27.54951 | -146.48662 | 37191 ft | 452 kts | 61° |
| 2026-04-28 02:35 | 27.57651 | -146.42304 | 37197 ft | 452 kts | 60° |
| 2026-04-28 02:36 | 27.60373 | -146.35884 | 37195 ft | 453 kts | 60° |
| 2026-04-28 02:36 | 27.63089 | -146.29467 | 37200 ft | 453 kts | 60° |
| 2026-04-28 02:37 | 27.65800 | -146.23052 | 37194 ft | 452 kts | 60° |
| 2026-04-28 02:37 | 27.68486 | -146.16686 | 37195 ft | 453 kts | 60° |
| 2026-04-28 02:38 | 27.71194 | -146.10260 | 37197 ft | 453 kts | 60° |
| 2026-04-28 02:38 | 27.73897 | -146.03832 | 37197 ft | 453 kts | 60° |
| 2026-04-28 02:39 | 27.76599 | -145.97399 | 37195 ft | 453 kts | 60° |
| 2026-04-28 02:39 | 27.79302 | -145.90952 | 37202 ft | 453 kts | 60° |
| 2026-04-28 02:40 | 27.81982 | -145.84549 | 37200 ft | 453 kts | 60° |
| 2026-04-28 02:40 | 27.84677 | -145.78102 | 37206 ft | 453 kts | 60° |
| 2026-04-28 02:41 | 27.87365 | -145.71660 | 37210 ft | 453 kts | 60° |
| 2026-04-28 02:41 | 27.90051 | -145.65212 | 37205 ft | 454 kts | 60° |
| 2026-04-28 02:42 | 27.92738 | -145.58751 | 37203 ft | 454 kts | 60° |
| 2026-04-28 02:42 | 27.95422 | -145.52289 | 37208 ft | 454 kts | 60° |
| 2026-04-28 02:43 | 27.98099 | -145.45831 | 37198 ft | 453 kts | 60° |
| 2026-04-28 02:43 | 28.00754 | -145.39417 | 37212 ft | 453 kts | 60° |
| 2026-04-28 02:44 | 28.03423 | -145.32958 | 37210 ft | 453 kts | 60° |
| 2026-04-28 02:44 | 28.06092 | -145.26488 | 37223 ft | 453 kts | 60° |
| 2026-04-28 02:45 | 28.08756 | -145.20021 | 37201 ft | 452 kts | 60° |
| 2026-04-28 02:45 | 28.11415 | -145.13554 | 37208 ft | 453 kts | 60° |
| 2026-04-28 02:46 | 28.14071 | -145.07084 | 37217 ft | 453 kts | 60° |
| 2026-04-28 02:46 | 28.16710 | -145.00647 | 37224 ft | 453 kts | 60° |
| 2026-04-28 02:47 | 28.19358 | -144.94176 | 37208 ft | 452 kts | 60° |
| 2026-04-28 02:47 | 28.22004 | -144.87697 | 37212 ft | 452 kts | 60° |
| 2026-04-28 02:48 | 28.24648 | -144.81216 | 37213 ft | 452 kts | 60° |
| 2026-04-28 02:48 | 28.27274 | -144.74765 | 37218 ft | 452 kts | 60° |
| 2026-04-28 02:49 | 28.29907 | -144.68290 | 37207 ft | 451 kts | 60° |
| 2026-04-28 02:49 | 28.32539 | -144.61802 | 37209 ft | 452 kts | 60° |
| 2026-04-28 02:50 | 28.35166 | -144.55319 | 37208 ft | 452 kts | 60° |
| 2026-04-28 02:50 | 28.37789 | -144.48836 | 37224 ft | 452 kts | 60° |
| 2026-04-28 02:51 | 28.40398 | -144.42375 | 37211 ft | 451 kts | 60° |
| 2026-04-28 02:51 | 28.43015 | -144.35884 | 37214 ft | 451 kts | 60° |
| 2026-04-28 02:52 | 28.45627 | -144.29393 | 37217 ft | 452 kts | 60° |
| 2026-04-28 02:52 | 28.48221 | -144.22938 | 37227 ft | 452 kts | 59° |
| 2026-04-28 02:53 | 28.50827 | -144.16441 | 37211 ft | 451 kts | 59° |
| 2026-04-28 02:53 | 28.53427 | -144.09948 | 37213 ft | 451 kts | 60° |
| 2026-04-28 02:54 | 28.56023 | -144.03455 | 37213 ft | 451 kts | 60° |
| 2026-04-28 02:54 | 28.58625 | -143.96937 | 37226 ft | 451 kts | 59° |
| 2026-04-28 02:55 | 28.61197 | -143.90480 | 37214 ft | 450 kts | 59° |
| 2026-04-28 02:55 | 28.63783 | -143.83980 | 37214 ft | 451 kts | 60° |
| 2026-04-28 02:56 | 28.66366 | -143.77473 | 37220 ft | 451 kts | 60° |
| 2026-04-28 02:56 | 28.68948 | -143.70963 | 37226 ft | 450 kts | 59° |
| 2026-04-28 02:57 | 28.71518 | -143.64468 | 37225 ft | 450 kts | 59° |
| 2026-04-28 02:57 | 28.74088 | -143.57962 | 37219 ft | 450 kts | 59° |
| 2026-04-28 02:58 | 28.76655 | -143.51455 | 37222 ft | 450 kts | 59° |
| 2026-04-28 02:58 | 28.79223 | -143.44930 | 37222 ft | 450 kts | 59° |
| 2026-04-28 02:59 | 28.81769 | -143.38455 | 37222 ft | 450 kts | 59° |
| 2026-04-28 02:59 | 28.84330 | -143.31927 | 37225 ft | 450 kts | 59° |
| 2026-04-28 03:00 | 28.86885 | -143.25404 | 37224 ft | 450 kts | 59° |
| 2026-04-28 03:00 | 28.89439 | -143.18874 | 37226 ft | 449 kts | 59° |
| 2026-04-28 03:01 | 28.91984 | -143.12352 | 37223 ft | 450 kts | 59° |
| 2026-04-28 03:01 | 28.94511 | -143.05869 | 37224 ft | 450 kts | 59° |
| 2026-04-28 03:02 | 28.97050 | -142.99345 | 37238 ft | 450 kts | 59° |
| 2026-04-28 03:02 | 28.99585 | -142.92814 | 37227 ft | 449 kts | 59° |
| 2026-04-28 03:03 | 29.02115 | -142.86289 | 37226 ft | 449 kts | 59° |
| 2026-04-28 03:03 | 29.04644 | -142.79754 | 37223 ft | 449 kts | 59° |
| 2026-04-28 03:04 | 29.07170 | -142.73216 | 37233 ft | 449 kts | 59° |
| 2026-04-28 03:04 | 29.09688 | -142.66686 | 37230 ft | 449 kts | 59° |
| 2026-04-28 03:05 | 29.12203 | -142.60155 | 37231 ft | 448 kts | 59° |
| 2026-04-28 03:05 | 29.14710 | -142.53631 | 37228 ft | 448 kts | 59° |
| 2026-04-28 03:06 | 29.17216 | -142.47098 | 37227 ft | 448 kts | 59° |
| 2026-04-28 03:06 | 29.19699 | -142.40613 | 37232 ft | 448 kts | 59° |
| 2026-04-28 03:07 | 29.22197 | -142.34079 | 37228 ft | 448 kts | 59° |
| 2026-04-28 03:07 | 29.24689 | -142.27552 | 37246 ft | 446 kts | 59° |
| 2026-04-28 03:08 | 29.27164 | -142.21055 | 37227 ft | 445 kts | 59° |
| 2026-04-28 03:08 | 29.29636 | -142.14554 | 37233 ft | 445 kts | 59° |
| 2026-04-28 03:09 | 29.32105 | -142.08050 | 37231 ft | 445 kts | 59° |
| 2026-04-28 03:09 | 29.34558 | -142.01576 | 37246 ft | 444 kts | 59° |
| 2026-04-28 03:10 | 29.37010 | -141.95094 | 37234 ft | 442 kts | 59° |
| 2026-04-28 03:10 | 29.39459 | -141.88610 | 37236 ft | 443 kts | 59° |
| 2026-04-28 03:11 | 29.41905 | -141.82121 | 37238 ft | 443 kts | 59° |
| 2026-04-28 03:11 | 29.44346 | -141.75634 | 37235 ft | 442 kts | 58° |
| 2026-04-28 03:12 | 29.46777 | -141.69163 | 37247 ft | 442 kts | 58° |
| 2026-04-28 03:12 | 29.49206 | -141.62685 | 37237 ft | 441 kts | 58° |
| 2026-04-28 03:13 | 29.51614 | -141.56250 | 37255 ft | 441 kts | 58° |
| 2026-04-28 03:13 | 29.54029 | -141.49786 | 37238 ft | 440 kts | 58° |
| 2026-04-28 03:14 | 29.56442 | -141.43317 | 37246 ft | 441 kts | 58° |
| 2026-04-28 03:14 | 29.58853 | -141.36844 | 37256 ft | 440 kts | 58° |
| 2026-04-28 03:15 | 29.61254 | -141.30382 | 37247 ft | 438 kts | 58° |
| 2026-04-28 03:15 | 29.63648 | -141.23929 | 37244 ft | 438 kts | 58° |
| 2026-04-28 03:16 | 29.66038 | -141.17475 | 37241 ft | 438 kts | 58° |
| 2026-04-28 03:16 | 29.68423 | -141.11024 | 37241 ft | 438 kts | 58° |
| 2026-04-28 03:17 | 29.70790 | -141.04610 | 37251 ft | 438 kts | 58° |
| 2026-04-28 03:17 | 29.74353 | -140.94940 | 37242 ft | 437 kts | 58° |
| 2026-04-28 03:18 | 29.76721 | -140.88498 | 37244 ft | 437 kts | 58° |
| 2026-04-28 03:18 | 29.79085 | -140.82058 | 37240 ft | 436 kts | 58° |
| 2026-04-28 03:19 | 29.81439 | -140.75632 | 37242 ft | 436 kts | 58° |
| 2026-04-28 03:19 | 29.83396 | -140.70280 | 37242 ft | 436 kts | 58° |
| 2026-04-28 03:20 | 29.85746 | -140.63845 | 37275 ft | 436 kts | 57° |
| 2026-04-28 03:20 | 29.88471 | -140.56367 | 37242 ft | 434 kts | 57° |
| 2026-04-28 03:21 | 29.90431 | -140.50982 | 37235 ft | 435 kts | 57° |
| 2026-04-28 03:21 | 29.92751 | -140.44594 | 37238 ft | 435 kts | 57° |
| 2026-04-28 03:22 | 29.95045 | -140.38153 | 37241 ft | 435 kts | 59° |
| 2026-04-28 03:22 | 29.97163 | -140.31613 | 37240 ft | 435 kts | 59° |
| 2026-04-28 03:23 | 29.99305 | -140.25081 | 37241 ft | 435 kts | 59° |
| 2026-04-28 03:23 | 30.01447 | -140.18551 | 37277 ft | 435 kts | 58° |
| 2026-04-28 03:24 | 30.03574 | -140.12054 | 37248 ft | 434 kts | 59° |
| 2026-04-28 03:24 | 30.05702 | -140.05542 | 37240 ft | 433 kts | 59° |
| 2026-04-28 03:25 | 30.07827 | -139.99026 | 37244 ft | 433 kts | 59° |
| 2026-04-28 03:25 | 30.09946 | -139.92518 | 37249 ft | 432 kts | 58° |
| 2026-04-28 03:26 | 30.12057 | -139.86022 | 37242 ft | 432 kts | 58° |
| 2026-04-28 03:26 | 30.14167 | -139.79514 | 37252 ft | 432 kts | 59° |
| 2026-04-28 03:27 | 30.16258 | -139.73054 | 37275 ft | 431 kts | 58° |
| 2026-04-28 03:27 | 30.18353 | -139.66567 | 37241 ft | 430 kts | 58° |
| 2026-04-28 03:28 | 30.20442 | -139.60085 | 37244 ft | 431 kts | 58° |
| 2026-04-28 03:28 | 30.22532 | -139.53592 | 37246 ft | 431 kts | 58° |
| 2026-04-28 03:29 | 30.24617 | -139.47095 | 37253 ft | 429 kts | 58° |
| 2026-04-28 03:29 | 30.26674 | -139.40680 | 37247 ft | 428 kts | 58° |
| 2026-04-28 03:30 | 30.28739 | -139.34224 | 37246 ft | 428 kts | 58° |
| 2026-04-28 03:30 | 30.30802 | -139.27763 | 37272 ft | 428 kts | 58° |
| 2026-04-28 03:31 | 30.32858 | -139.21307 | 37244 ft | 427 kts | 58° |
| 2026-04-28 03:31 | 30.34908 | -139.14860 | 37253 ft | 426 kts | 58° |
| 2026-04-28 03:32 | 30.36945 | -139.08444 | 37256 ft | 424 kts | 58° |
| 2026-04-28 03:32 | 30.38975 | -139.02033 | 37246 ft | 423 kts | 58° |
| 2026-04-28 03:33 | 30.40997 | -138.95638 | 37248 ft | 423 kts | 58° |
| 2026-04-28 03:33 | 30.43008 | -138.89264 | 37248 ft | 423 kts | 58° |
| 2026-04-28 03:34 | 30.45023 | -138.82863 | 37251 ft | 422 kts | 58° |
| 2026-04-28 03:34 | 30.47030 | -138.76479 | 37250 ft | 421 kts | 58° |
| 2026-04-28 03:35 | 30.49035 | -138.70086 | 37251 ft | 421 kts | 58° |
| 2026-04-28 03:35 | 30.51035 | -138.63699 | 37307 ft | 421 kts | 58° |
| 2026-04-28 03:36 | 30.53024 | -138.57331 | 37244 ft | 418 kts | 58° |
| 2026-04-28 03:36 | 30.54988 | -138.51032 | 37250 ft | 417 kts | 58° |
| 2026-04-28 03:37 | 30.56962 | -138.44690 | 37251 ft | 417 kts | 58° |
| 2026-04-28 03:37 | 30.58930 | -138.38354 | 37251 ft | 417 kts | 59° |
| 2026-04-28 03:38 | 30.60898 | -138.32004 | 37259 ft | 418 kts | 59° |
| 2026-04-28 03:38 | 30.62849 | -138.25699 | 37255 ft | 418 kts | 59° |
| 2026-04-28 03:39 | 30.64804 | -138.19368 | 37267 ft | 417 kts | 59° |
| 2026-04-28 03:39 | 30.66763 | -138.13013 | 37255 ft | 418 kts | 59° |
| 2026-04-28 03:40 | 30.68721 | -138.06643 | 37257 ft | 418 kts | 59° |
| 2026-04-28 03:40 | 30.70675 | -138.00278 | 37304 ft | 419 kts | 60° |
| 2026-04-28 03:41 | 30.72642 | -137.93859 | 37253 ft | 422 kts | 60° |
| 2026-04-28 03:41 | 30.74602 | -137.87445 | 37249 ft | 420 kts | 60° |
| 2026-04-28 03:42 | 30.76544 | -137.81079 | 37252 ft | 420 kts | 60° |
| 2026-04-28 03:42 | 30.78502 | -137.74651 | 37250 ft | 424 kts | 61° |
| 2026-04-28 03:43 | 30.80472 | -137.68165 | 37255 ft | 424 kts | 61° |
| 2026-04-28 03:43 | 30.82440 | -137.61675 | 37245 ft | 424 kts | 61° |
| 2026-04-28 03:44 | 30.84391 | -137.55230 | 37256 ft | 428 kts | 62° |
| 2026-04-28 03:44 | 30.86367 | -137.48687 | 37250 ft | 429 kts | 62° |
| 2026-04-28 03:45 | 30.88344 | -137.42125 | 37246 ft | 429 kts | 62° |
| 2026-04-28 03:45 | 30.90317 | -137.35565 | 37257 ft | 430 kts | 63° |
| 2026-04-28 03:46 | 30.92292 | -137.28983 | 37245 ft | 430 kts | 63° |
| 2026-04-28 03:46 | 30.94262 | -137.22406 | 37247 ft | 430 kts | 63° |
| 2026-04-28 03:47 | 30.96230 | -137.15821 | 37263 ft | 431 kts | 63° |
| 2026-04-28 03:47 | 30.98205 | -137.09196 | 37247 ft | 433 kts | 63° |
| 2026-04-28 03:48 | 31.00177 | -137.02570 | 37241 ft | 431 kts | 64° |
| 2026-04-28 03:48 | 31.02142 | -136.95954 | 37263 ft | 432 kts | 64° |
| 2026-04-28 03:49 | 31.04094 | -136.89367 | 37251 ft | 434 kts | 64° |
| 2026-04-28 03:49 | 31.06059 | -136.82721 | 37246 ft | 434 kts | 64° |
| 2026-04-28 03:50 | 31.08021 | -136.76070 | 37244 ft | 432 kts | 64° |
| 2026-04-28 03:50 | 31.09972 | -136.69444 | 37242 ft | 431 kts | 64° |
| 2026-04-28 03:51 | 31.11920 | -136.62813 | 37247 ft | 432 kts | 64° |
| 2026-04-28 03:51 | 31.13865 | -136.56180 | 37265 ft | 432 kts | 64° |
| 2026-04-28 03:52 | 31.15813 | -136.49519 | 37248 ft | 434 kts | 65° |
| 2026-04-28 03:52 | 31.17739 | -136.42920 | 37243 ft | 430 kts | 65° |
| 2026-04-28 03:53 | 31.19668 | -136.36299 | 37270 ft | 431 kts | 65° |
| 2026-04-28 03:53 | 31.21607 | -136.29627 | 37246 ft | 435 kts | 65° |
| 2026-04-28 03:54 | 31.23547 | -136.22936 | 37241 ft | 435 kts | 65° |
| 2026-04-28 03:54 | 31.25478 | -136.16262 | 37257 ft | 431 kts | 66° |
| 2026-04-28 03:55 | 31.27404 | -136.09590 | 37250 ft | 435 kts | 66° |
| 2026-04-28 03:55 | 31.29323 | -136.02930 | 37244 ft | 435 kts | 66° |
| 2026-04-28 03:56 | 31.31249 | -135.96231 | 37273 ft | 435 kts | 66° |
| 2026-04-28 03:56 | 31.33181 | -135.89494 | 37241 ft | 435 kts | 66° |
| 2026-04-28 03:57 | 31.35098 | -135.82795 | 37238 ft | 434 kts | 66° |
| 2026-04-28 03:57 | 31.37013 | -135.76088 | 37255 ft | 434 kts | 67° |
| 2026-04-28 03:58 | 31.38929 | -135.69363 | 37240 ft | 436 kts | 67° |
| 2026-04-28 03:58 | 31.40832 | -135.62668 | 37243 ft | 434 kts | 67° |
| 2026-04-28 03:59 | 31.42732 | -135.55971 | 37247 ft | 434 kts | 68° |
| 2026-04-28 03:59 | 31.44632 | -135.49256 | 37240 ft | 435 kts | 68° |
| 2026-04-28 04:00 | 31.46531 | -135.42530 | 37237 ft | 434 kts | 68° |
| 2026-04-28 04:00 | 31.48425 | -135.35806 | 37253 ft | 434 kts | 68° |
| 2026-04-28 04:01 | 31.50312 | -135.29096 | 37238 ft | 433 kts | 68° |
| 2026-04-28 04:01 | 31.52195 | -135.22380 | 37238 ft | 433 kts | 68° |
| 2026-04-28 04:02 | 31.54078 | -135.15651 | 37243 ft | 435 kts | 68° |
| 2026-04-28 04:02 | 31.55966 | -135.08889 | 37242 ft | 435 kts | 68° |
| 2026-04-28 04:03 | 31.57835 | -135.02176 | 37239 ft | 432 kts | 68° |
| 2026-04-28 04:03 | 31.59701 | -134.95463 | 37239 ft | 435 kts | 68° |
| 2026-04-28 04:04 | 31.61562 | -134.88750 | 37239 ft | 436 kts | 69° |
| 2026-04-28 04:04 | 31.63431 | -134.81995 | 37236 ft | 435 kts | 69° |
| 2026-04-28 04:05 | 31.65297 | -134.75234 | 37238 ft | 436 kts | 69° |
| 2026-04-28 04:05 | 31.67163 | -134.68459 | 37241 ft | 436 kts | 69° |
| 2026-04-28 04:06 | 31.69024 | -134.61683 | 37238 ft | 436 kts | 69° |
| 2026-04-28 04:06 | 31.70882 | -134.54903 | 37240 ft | 436 kts | 69° |
| 2026-04-28 04:07 | 31.72425 | -134.49263 | 37241 ft | 436 kts | 69° |
| 2026-04-28 04:07 | 31.74591 | -134.41323 | 37244 ft | 441 kts | 69° |
| 2026-04-28 04:08 | 31.76159 | -134.35563 | 37238 ft | 441 kts | 69° |
| 2026-04-28 04:08 | 31.78011 | -134.28744 | 37239 ft | 441 kts | 69° |
| 2026-04-28 04:09 | 31.79873 | -134.21873 | 37244 ft | 441 kts | 70° |
| 2026-04-28 04:09 | 31.81736 | -134.14983 | 37241 ft | 443 kts | 70° |
| 2026-04-28 04:10 | 31.83598 | -134.08078 | 37235 ft | 442 kts | 70° |
| 2026-04-28 04:10 | 31.85455 | -134.01174 | 37234 ft | 443 kts | 70° |
| 2026-04-28 04:11 | 31.87308 | -133.94269 | 37238 ft | 443 kts | 70° |
| 2026-04-28 04:11 | 31.89146 | -133.87406 | 37238 ft | 443 kts | 70° |
| 2026-04-28 04:12 | 31.90996 | -133.80481 | 37236 ft | 443 kts | 70° |
| 2026-04-28 04:12 | 31.92843 | -133.73549 | 37235 ft | 443 kts | 70° |
| 2026-04-28 04:13 | 31.94683 | -133.66624 | 37235 ft | 443 kts | 70° |
| 2026-04-28 04:13 | 31.96520 | -133.59698 | 37235 ft | 443 kts | 71° |
| 2026-04-28 04:14 | 31.98355 | -133.52763 | 37232 ft | 443 kts | 71° |
| 2026-04-28 04:14 | 32.00177 | -133.45867 | 37232 ft | 443 kts | 71° |
| 2026-04-28 04:15 | 32.02006 | -133.38924 | 37235 ft | 444 kts | 71° |
| 2026-04-28 04:16 | 32.04746 | -133.28495 | 37234 ft | 444 kts | 71° |
| 2026-04-28 04:16 | 32.06567 | -133.21540 | 37232 ft | 444 kts | 71° |
| 2026-04-28 04:17 | 32.08385 | -133.14581 | 37238 ft | 444 kts | 71° |
| 2026-04-28 04:17 | 32.10187 | -133.07666 | 37235 ft | 444 kts | 71° |
| 2026-04-28 04:18 | 32.11997 | -133.00704 | 37237 ft | 444 kts | 72° |
| 2026-04-28 04:18 | 32.13810 | -132.93715 | 37230 ft | 444 kts | 72° |
| 2026-04-28 04:19 | 32.15613 | -132.86745 | 37232 ft | 444 kts | 71° |
| 2026-04-28 04:19 | 32.17907 | -132.80020 | 37247 ft | 442 kts | 61° |
| 2026-04-28 04:20 | 32.20461 | -132.73415 | 37227 ft | 443 kts | 74° |
| 2026-04-28 04:20 | 32.22184 | -132.66414 | 37216 ft | 444 kts | 71° |
| 2026-04-28 04:21 | 32.23969 | -132.59424 | 37228 ft | 445 kts | 72° |
| 2026-04-28 04:21 | 32.25738 | -132.52471 | 37232 ft | 444 kts | 72° |
| 2026-04-28 04:22 | 32.27516 | -132.45466 | 37231 ft | 445 kts | 72° |
| 2026-04-28 04:22 | 32.29292 | -132.38453 | 37228 ft | 444 kts | 73° |
| 2026-04-28 04:23 | 32.31061 | -132.31447 | 37223 ft | 444 kts | 73° |
| 2026-04-28 04:23 | 32.32823 | -132.24448 | 37220 ft | 445 kts | 72° |
| 2026-04-28 04:24 | 32.34587 | -132.17430 | 37218 ft | 445 kts | 73° |
| 2026-04-28 04:24 | 32.36338 | -132.10439 | 37228 ft | 446 kts | 73° |
| 2026-04-28 04:25 | 32.38099 | -132.03394 | 37232 ft | 446 kts | 73° |
| 2026-04-28 04:25 | 32.39854 | -131.96351 | 37220 ft | 446 kts | 73° |
| 2026-04-28 04:26 | 32.41611 | -131.89282 | 37224 ft | 450 kts | 73° |
| 2026-04-28 04:26 | 32.43376 | -131.82163 | 37222 ft | 451 kts | 74° |